Time;durP1;ratioP1;P1;durP2;ratioP2;P2;SDS_P1;SDS_P2;PMS_P1;PMS_P2;Temp;Humidity;BMP_temperature;BMP_pressure;BME280_temperature;BME280_humidity;BME280_pressure;Samples;Min_cycle;Max_cycle;Signal;HPM_P1;HPM_P2
2022/05/13 00:01:10;;;;;;;;;;;10.40;99.90;;;;;;4972599;28;19925;-74
2022/05/13 00:03:36;;;;;;;;;;;10.40;99.90;;;;;;4970768;28;20576;-74
2022/05/13 00:06:02;;;;;;;;;;;10.30;99.90;;;;;;4973996;28;19932;-74
2022/05/13 00:08:28;;;;;;;;;;;10.30;99.90;;;;;;4970066;28;19929;-73
2022/05/13 00:10:54;;;;;;;;;;;10.30;99.90;;;;;;4971820;28;20276;-74
2022/05/13 00:13:19;;;;;;;;;;;10.30;99.90;;;;;;4951053;28;19925;-74
2022/05/13 00:15:46;;;;;;;;;;;10.40;99.90;;;;;;4953682;28;20020;-74
2022/05/13 00:18:12;;;;;;;;;;;10.40;99.90;;;;;;4969577;28;20480;-74
2022/05/13 00:20:38;;;;;;;;;;;10.20;99.90;;;;;;4971869;28;20024;-74
2022/05/13 00:23:04;;;;;;;;;;;10.20;99.90;;;;;;4970631;28;19932;-74
2022/05/13 00:25:32;;;;;;;;;;;10.20;99.90;;;;;;4968315;28;20370;-74
2022/05/13 00:27:58;;;;;;;;;;;10.00;99.90;;;;;;4971053;28;20035;-74
2022/05/13 00:30:24;;;;;;;;;;;10.00;99.90;;;;;;4965384;28;19925;-74
2022/05/13 00:32:50;;;;;;;;;;;10.00;99.90;;;;;;4974253;28;20064;-74
2022/05/13 00:35:17;;;;;;;;;;;9.90;99.90;;;;;;4969544;28;20421;-73
2022/05/13 00:37:42;;;;;;;;;;;9.90;99.90;;;;;;4971596;28;20006;-74
2022/05/13 00:40:09;;;;;;;;;;;9.80;99.90;;;;;;4972932;28;19930;-73
2022/05/13 00:42:35;;;;;;;;;;;9.80;99.90;;;;;;4975871;28;19925;-74
2022/05/13 00:45:00;;;;;;;;;;;9.90;99.90;;;;;;4955122;28;19926;-74
2022/05/13 00:47:26;;;;;;;;;;;10.00;99.90;;;;;;4972210;28;19926;-74
2022/05/13 00:49:56;;;;;;;;;;;9.90;99.90;;;;;;4969295;28;19933;-73
2022/05/13 00:52:23;;;;;;;;;;;9.90;99.90;;;;;;4972356;28;19925;-74
2022/05/13 00:54:49;;;;;;;;;;;9.90;99.90;;;;;;4969205;28;19964;-74
2022/05/13 00:57:15;;;;;;;;;;;9.80;99.90;;;;;;4970782;28;20060;-74
2022/05/13 00:59:42;;;;;;;;;;;9.80;99.90;;;;;;4971368;28;19932;-74
2022/05/13 01:02:08;;;;;;;;;;;9.90;99.90;;;;;;4951688;28;20619;-74
2022/05/13 01:04:35;;;;;;;;;;;9.90;99.90;;;;;;4974622;28;19925;-74
2022/05/13 01:07:04;;;;;;;;;;;9.90;99.90;;;;;;4956282;28;20456;-74
2022/05/13 01:09:32;;;;;;;;;;;9.80;99.90;;;;;;4968284;28;20012;-74
2022/05/13 01:11:58;;;;;;;;;;;9.90;99.90;;;;;;4969502;28;19964;-74
2022/05/13 01:14:25;;;;;;;;;;;9.90;99.90;;;;;;4971714;28;19948;-74
2022/05/13 01:19:35;;;;;;;;;;;9.90;99.90;;;;;;4971775;28;20020;-73
2022/05/13 01:22:17;;;;;;;;;;;10.00;99.90;;;;;;4970566;28;20383;-74
2022/05/13 01:24:43;;;;;;;;;;;9.90;99.90;;;;;;4969553;28;19964;-74
2022/05/13 01:27:09;;;;;;;;;;;9.80;99.90;;;;;;4970546;28;19973;-73
2022/05/13 01:29:35;;;;;;;;;;;9.90;99.90;;;;;;4972177;28;20032;-74
2022/05/13 01:32:00;;;;;;;;;;;9.80;99.90;;;;;;4972528;28;19949;-73
2022/05/13 01:34:26;;;;;;;;;;;9.80;99.90;;;;;;4971075;28;19956;-74
2022/05/13 01:36:52;;;;;;;;;;;9.90;99.90;;;;;;4951197;28;20406;-74
2022/05/13 01:39:17;;;;;;;;;;;10.00;99.90;;;;;;4968972;28;19930;-74
2022/05/13 01:41:43;;;;;;;;;;;9.80;99.90;;;;;;4970701;28;19925;-74
2022/05/13 01:44:09;;;;;;;;;;;9.80;99.90;;;;;;4971469;28;19929;-74
2022/05/13 01:46:35;;;;;;;;;;;9.90;99.90;;;;;;4956406;28;20359;-73
2022/05/13 01:49:01;;;;;;;;;;;10.00;99.90;;;;;;4972375;28;19933;-73
2022/05/13 01:51:26;;;;;;;;;;;10.00;99.90;;;;;;4954523;28;20545;-74
2022/05/13 01:53:52;;;;;;;;;;;10.00;99.90;;;;;;4968660;28;19932;-74
2022/05/13 01:56:18;;;;;;;;;;;10.20;99.90;;;;;;4971087;28;19981;-73
2022/05/13 01:58:43;;;;;;;;;;;10.30;99.90;;;;;;4969284;28;20635;-73
2022/05/13 02:01:09;;;;;;;;;;;10.30;99.90;;;;;;4953058;28;19925;-73
2022/05/13 02:03:45;;;;;;;;;;;10.30;99.90;;;;;;4971902;28;19926;-73
2022/05/13 02:06:12;;;;;;;;;;;10.40;99.90;;;;;;4953093;28;19941;-73
2022/05/13 02:08:37;;;;;;;;;;;10.50;99.90;;;;;;4969721;28;19926;-74
2022/05/13 02:11:03;;;;;;;;;;;10.50;99.90;;;;;;4951970;28;19932;-74
2022/05/13 02:13:29;;;;;;;;;;;10.60;99.90;;;;;;4969581;28;20027;-74
2022/05/13 02:15:55;;;;;;;;;;;10.50;99.90;;;;;;4971067;28;20501;-73
2022/05/13 02:18:21;;;;;;;;;;;10.60;99.90;;;;;;4970307;28;19925;-74
2022/05/13 02:20:47;;;;;;;;;;;10.60;99.90;;;;;;4974129;28;19925;-74
2022/05/13 02:23:13;;;;;;;;;;;10.60;99.90;;;;;;4954013;28;20065;-74
2022/05/13 02:25:39;;;;;;;;;;;10.60;99.90;;;;;;4958583;28;20016;-74
2022/05/13 02:28:05;;;;;;;;;;;10.50;99.90;;;;;;4954917;28;19925;-74
2022/05/13 02:30:31;;;;;;;;;;;10.50;99.90;;;;;;4975959;28;19926;-73
2022/05/13 02:32:57;;;;;;;;;;;10.50;99.90;;;;;;4971045;28;19926;-74
2022/05/13 02:35:23;;;;;;;;;;;10.40;99.90;;;;;;4957139;28;19991;-73
2022/05/13 02:37:52;;;;;;;;;;;10.40;99.90;;;;;;4973516;28;19925;-74
2022/05/13 02:40:18;;;;;;;;;;;10.30;99.90;;;;;;4971969;28;19941;-73
2022/05/13 02:42:43;;;;;;;;;;;10.30;99.90;;;;;;4957108;28;19929;-74
2022/05/13 02:45:09;;;;;;;;;;;10.40;99.90;;;;;;4955307;28;19925;-74
2022/05/13 02:47:38;;;;;;;;;;;10.30;99.90;;;;;;4973068;28;19929;-74
2022/05/13 02:50:21;;;;;;;;;;;10.20;99.90;;;;;;4972209;28;19932;-74
2022/05/13 02:52:50;;;;;;;;;;;10.30;99.90;;;;;;4972194;28;19925;-74
2022/05/13 02:55:16;;;;;;;;;;;10.30;99.90;;;;;;4973612;28;20044;-73
2022/05/13 02:57:42;;;;;;;;;;;10.30;99.90;;;;;;4972048;28;19925;-74
2022/05/13 03:00:08;;;;;;;;;;;10.30;99.90;;;;;;4957598;28;19930;-74
2022/05/13 03:02:34;;;;;;;;;;;10.30;99.90;;;;;;4953192;28;19933;-74
2022/05/13 03:05:00;;;;;;;;;;;10.30;99.90;;;;;;4974129;28;19925;-74
2022/05/13 03:07:26;;;;;;;;;;;10.30;99.90;;;;;;4954989;28;20003;-74
2022/05/13 03:09:52;;;;;;;;;;;10.30;99.90;;;;;;4971877;28;19929;-74
2022/05/13 03:12:17;;;;;;;;;;;10.30;99.90;;;;;;4952175;28;19980;-75
2022/05/13 03:14:43;;;;;;;;;;;10.20;99.90;;;;;;4950198;28;20294;-73
2022/05/13 03:17:09;;;;;;;;;;;10.20;99.90;;;;;;4969084;28;19941;-74
2022/05/13 03:19:36;;;;;;;;;;;10.20;99.90;;;;;;4973389;28;20057;-74
2022/05/13 03:22:02;;;;;;;;;;;10.30;99.90;;;;;;4972972;28;20060;-74
2022/05/13 03:24:28;;;;;;;;;;;10.20;99.90;;;;;;4974749;28;19925;-74
2022/05/13 03:26:53;;;;;;;;;;;10.30;99.90;;;;;;4973313;28;20406;-73
2022/05/13 03:29:20;;;;;;;;;;;10.30;99.90;;;;;;4975374;28;20032;-74
2022/05/13 03:31:45;;;;;;;;;;;10.20;99.90;;;;;;4945501;28;19926;-73
2022/05/13 03:34:11;;;;;;;;;;;10.30;99.90;;;;;;4969505;28;19932;-74
2022/05/13 03:36:37;;;;;;;;;;;10.30;99.90;;;;;;4971450;28;19926;-75
2022/05/13 03:39:03;;;;;;;;;;;10.30;99.90;;;;;;4956690;28;19922;-74
2022/05/13 03:41:28;;;;;;;;;;;10.40;99.90;;;;;;4974569;28;19930;-75
2022/05/13 03:43:54;;;;;;;;;;;10.50;99.90;;;;;;4971020;28;19991;-75
2022/05/13 03:46:20;;;;;;;;;;;10.50;99.90;;;;;;4940030;28;20020;-73
2022/05/13 03:48:45;;;;;;;;;;;10.50;99.90;;;;;;4976181;28;21043;-74
2022/05/13 03:51:11;;;;;;;;;;;10.50;99.90;;;;;;4973719;28;20901;-74
2022/05/13 03:53:38;;;;;;;;;;;10.60;99.90;;;;;;4969361;28;20009;-74
2022/05/13 03:56:04;;;;;;;;;;;10.60;99.90;;;;;;4952994;28;19926;-73
2022/05/13 03:58:30;;;;;;;;;;;10.60;99.90;;;;;;4958723;28;19969;-73
2022/05/13 04:00:56;;;;;;;;;;;10.70;99.90;;;;;;4969791;28;20128;-73
2022/05/13 04:03:22;;;;;;;;;;;10.70;99.90;;;;;;4967714;28;20291;-73
2022/05/13 04:11:16;;;;;;;;;;;10.70;99.90;;;;;;4970611;28;20228;-74
2022/05/13 04:16:27;;;;;;;;;;;10.80;99.90;;;;;;4953836;28;19933;-74
2022/05/13 04:18:53;;;;;;;;;;;10.80;99.90;;;;;;4955965;28;19926;-74
2022/05/13 04:21:30;;;;;;;;;;;10.80;99.90;;;;;;4959100;28;19930;-73
2022/05/13 04:23:57;;;;;;;;;;;10.90;99.90;;;;;;4952705;28;19936;-74
2022/05/13 04:26:23;;;;;;;;;;;10.90;99.90;;;;;;4934513;28;19965;-74
2022/05/13 04:28:50;;;;;;;;;;;11.00;99.90;;;;;;4933570;28;20063;-74
2022/05/13 04:31:22;;;;;;;;;;;11.00;99.90;;;;;;4930870;28;19930;-74
2022/05/13 04:33:48;;;;;;;;;;;11.00;99.90;;;;;;4953513;28;20025;-74
2022/05/13 04:36:15;;;;;;;;;;;11.00;99.90;;;;;;4956498;28;20073;-74
2022/05/13 04:38:41;;;;;;;;;;;11.10;99.90;;;;;;4949335;28;20020;-74
2022/05/13 04:43:52;;;;;;;;;;;11.10;99.90;;;;;;4952733;28;19930;-74
2022/05/13 04:46:17;;;;;;;;;;;11.10;99.90;;;;;;4948441;28;19926;-73
2022/05/13 04:48:44;;;;;;;;;;;11.20;99.90;;;;;;4951416;28;20419;-74
2022/05/13 04:51:10;;;;;;;;;;;11.20;99.90;;;;;;4949915;28;20110;-74
2022/05/13 04:53:37;;;;;;;;;;;11.20;99.90;;;;;;4950088;28;21819;-74
2022/05/13 04:56:04;;;;;;;;;;;11.30;99.90;;;;;;4935311;28;19926;-74
2022/05/13 04:58:29;;;;;;;;;;;11.30;99.90;;;;;;4951090;28;19926;-74
2022/05/13 05:00:56;;;;;;;;;;;11.30;99.90;;;;;;4936483;28;19971;-74
2022/05/13 05:03:24;;;;;;;;;;;11.40;99.90;;;;;;4949309;28;20012;-74
2022/05/13 05:05:50;;;;;;;;;;;11.40;99.90;;;;;;4948877;28;19937;-74
2022/05/13 05:08:16;;;;;;;;;;;11.40;99.90;;;;;;4950462;28;19925;-74
2022/05/13 05:10:43;;;;;;;;;;;11.50;99.90;;;;;;4919065;28;19977;-74
2022/05/13 05:13:09;;;;;;;;;;;11.50;99.90;;;;;;4953636;28;19929;-74
2022/05/13 05:15:35;;;;;;;;;;;11.60;99.90;;;;;;4970606;28;19988;-73
2022/05/13 05:18:01;;;;;;;;;;;11.60;99.90;;;;;;4973230;28;19926;-74
2022/05/13 05:20:27;;;;;;;;;;;11.80;99.90;;;;;;4957329;28;19992;-74
2022/05/13 05:22:53;;;;;;;;;;;11.80;99.90;;;;;;4973888;28;19948;-74
2022/05/13 05:25:20;;;;;;;;;;;11.90;99.90;;;;;;4978003;28;19941;-74
2022/05/13 05:27:46;;;;;;;;;;;11.90;99.90;;;;;;4968362;28;19937;-74
2022/05/13 05:30:12;;;;;;;;;;;12.00;99.90;;;;;;4942001;28;19926;-75
2022/05/13 05:32:38;;;;;;;;;;;12.00;99.90;;;;;;4972829;28;19926;-74
2022/05/13 05:35:09;;;;;;;;;;;12.00;99.90;;;;;;4969163;28;20386;-74
2022/05/13 05:37:35;;;;;;;;;;;12.10;99.90;;;;;;4969712;28;20366;-74
2022/05/13 05:40:01;;;;;;;;;;;12.10;99.90;;;;;;4974293;28;20591;-74
2022/05/13 05:42:26;;;;;;;;;;;12.20;99.90;;;;;;4971614;28;19925;-75
2022/05/13 05:44:52;;;;;;;;;;;12.30;99.90;;;;;;4974224;28;19925;-74
2022/05/13 05:47:22;;;;;;;;;;;12.40;99.90;;;;;;4948569;28;19925;-74
2022/05/13 05:49:47;;;;;;;;;;;12.60;99.90;;;;;;4953594;28;19962;-73
2022/05/13 05:52:13;;;;;;;;;;;12.70;99.90;;;;;;4959740;28;20008;-75
2022/05/13 05:57:23;;;;;;;;;;;12.90;99.90;;;;;;4960394;28;19938;-74
2022/05/13 05:59:49;;;;;;;;;;;13.00;99.90;;;;;;4959280;28;19936;-75
2022/05/13 06:02:16;;;;;;;;;;;13.10;99.90;;;;;;4949328;28;20389;-74
2022/05/13 06:04:42;;;;;;;;;;;13.20;99.90;;;;;;4968029;28;19932;-75
2022/05/13 06:07:09;;;;;;;;;;;13.20;99.90;;;;;;4968569;28;19929;-74
2022/05/13 06:09:35;;;;;;;;;;;13.40;99.90;;;;;;4954287;28;19925;-74
2022/05/13 06:12:01;;;;;;;;;;;13.70;99.90;;;;;;4969124;28;20700;-74
2022/05/13 06:14:27;;;;;;;;;;;13.60;99.90;;;;;;4971193;28;19925;-75
2022/05/13 06:16:53;;;;;;;;;;;13.80;99.90;;;;;;4970082;28;19969;-74
2022/05/13 06:19:19;;;;;;;;;;;14.00;99.90;;;;;;4969688;28;20040;-74
2022/05/13 06:21:44;;;;;;;;;;;14.10;99.90;;;;;;4974202;28;20718;-74
2022/05/13 06:24:10;;;;;;;;;;;14.20;99.90;;;;;;4952060;28;19925;-78
2022/05/13 06:26:36;;;;;;;;;;;14.10;99.90;;;;;;4954200;28;20019;-74
2022/05/13 06:29:03;;;;;;;;;;;14.30;99.90;;;;;;4969926;28;19932;-75
2022/05/13 06:31:29;;;;;;;;;;;14.60;99.90;;;;;;4967619;28;20383;-76
2022/05/13 06:33:55;;;;;;;;;;;14.90;99.90;;;;;;4970293;28;19925;-76
2022/05/13 06:36:20;;;;;;;;;;;15.10;99.90;;;;;;4951347;28;19925;-75
2022/05/13 06:38:47;;;;;;;;;;;15.20;99.90;;;;;;4972177;28;20230;-74
2022/05/13 06:41:12;;;;;;;;;;;15.20;99.90;;;;;;4953930;28;20384;-75
2022/05/13 06:43:38;;;;;;;;;;;15.10;99.90;;;;;;4967901;28;19930;-77
2022/05/13 06:46:04;;;;;;;;;;;15.00;99.90;;;;;;4971007;28;19925;-75
2022/05/13 06:48:29;;;;;;;;;;;15.20;99.90;;;;;;4967933;28;19925;-77
2022/05/13 06:50:55;;;;;;;;;;;15.20;99.90;;;;;;4952254;28;20355;-76
2022/05/13 06:53:21;;;;;;;;;;;15.10;99.90;;;;;;4949858;28;19972;-75
2022/05/13 06:55:47;;;;;;;;;;;15.20;99.90;;;;;;4970726;28;19925;-74
2022/05/13 06:58:13;;;;;;;;;;;15.20;99.90;;;;;;4934374;28;19934;-75
2022/05/13 07:00:40;;;;;;;;;;;15.20;99.90;;;;;;4970020;28;20004;-76
2022/05/13 07:03:07;;;;;;;;;;;15.10;99.90;;;;;;4956012;28;19932;-76
2022/05/13 07:05:32;;;;;;;;;;;15.00;99.90;;;;;;4974163;28;20390;-75
2022/05/13 07:07:58;;;;;;;;;;;15.00;99.90;;;;;;4952617;28;19930;-75
2022/05/13 07:10:24;;;;;;;;;;;14.80;99.90;;;;;;4976166;28;21141;-74
2022/05/13 07:12:50;;;;;;;;;;;14.70;99.90;;;;;;4971328;28;20012;-76
2022/05/13 07:15:17;;;;;;;;;;;14.50;99.90;;;;;;4960318;28;20681;-76
2022/05/13 07:17:42;;;;;;;;;;;14.40;99.90;;;;;;4956711;28;19925;-75
2022/05/13 07:20:09;;;;;;;;;;;14.20;99.90;;;;;;4953228;28;20637;-74
2022/05/13 07:22:34;;;;;;;;;;;14.20;99.90;;;;;;4970830;28;19928;-74
2022/05/13 07:25:00;;;;;;;;;;;14.00;99.90;;;;;;4953584;28;19925;-74
2022/05/13 07:27:26;;;;;;;;;;;13.90;99.90;;;;;;4939724;28;22664;-74
2022/05/13 07:29:52;;;;;;;;;;;13.70;99.90;;;;;;4955120;28;19926;-75
2022/05/13 07:32:18;;;;;;;;;;;13.70;99.90;;;;;;4947882;28;20006;-76
2022/05/13 07:34:45;;;;;;;;;;;13.60;99.90;;;;;;4951782;28;19925;-75
2022/05/13 07:37:11;;;;;;;;;;;13.80;99.90;;;;;;4949931;28;19991;-74
2022/05/13 07:42:21;;;;;;;;;;;14.00;99.90;;;;;;4955512;28;19926;-76
2022/05/13 07:44:47;;;;;;;;;;;14.20;99.90;;;;;;4953069;28;19925;-75
2022/05/13 07:47:14;;;;;;;;;;;14.20;99.90;;;;;;4949528;28;19949;-76
2022/05/13 07:49:41;;;;;;;;;;;14.30;99.90;;;;;;4952047;28;19941;-75
2022/05/13 07:52:07;;;;;;;;;;;14.20;99.90;;;;;;4934827;28;19935;-75
2022/05/13 07:54:33;;;;;;;;;;;14.20;99.90;;;;;;4948168;28;20494;-76
2022/05/13 07:56:59;;;;;;;;;;;14.00;99.90;;;;;;4954197;28;19938;-73
2022/05/13 07:59:26;;;;;;;;;;;14.00;99.90;;;;;;4922516;28;19925;-74
2022/05/13 08:01:52;;;;;;;;;;;14.20;99.90;;;;;;4952183;28;19972;-75
2022/05/13 08:04:18;;;;;;;;;;;15.10;99.90;;;;;;4947046;28;19940;-76
2022/05/13 08:06:44;;;;;;;;;;;15.80;99.90;;;;;;4945926;28;20724;-78
2022/05/13 08:09:10;;;;;;;;;;;16.30;99.90;;;;;;4948345;28;19926;-76
2022/05/13 08:11:36;;;;;;;;;;;17.10;99.90;;;;;;4920521;28;19925;-75
2022/05/13 08:14:02;;;;;;;;;;;16.80;99.90;;;;;;4957000;28;19972;-75
2022/05/13 08:16:29;;;;;;;;;;;16.40;99.90;;;;;;4940844;28;20342;-77
2022/05/13 08:18:58;;;;;;;;;;;16.30;99.90;;;;;;4931873;28;20032;-78
2022/05/13 08:21:24;;;;;;;;;;;16.60;99.90;;;;;;4952319;28;20020;-79
2022/05/13 08:23:51;;;;;;;;;;;17.10;99.90;;;;;;4949835;28;19980;-77
2022/05/13 08:26:17;;;;;;;;;;;17.00;99.90;;;;;;4952485;28;19947;-76
2022/05/13 08:28:43;;;;;;;;;;;17.00;99.90;;;;;;4954647;28;19925;-75
2022/05/13 08:31:09;;;;;;;;;;;16.90;99.90;;;;;;4949389;28;19929;-77
2022/05/13 08:33:36;;;;;;;;;;;16.70;99.90;;;;;;4946088;28;19929;-76
2022/05/13 08:36:03;;;;;;;;;;;16.50;99.90;;;;;;4948495;28;19981;-77
2022/05/13 08:38:30;;;;;;;;;;;16.70;99.90;;;;;;4935638;28;19925;-77
2022/05/13 08:41:05;;;;;;;;;;;16.40;99.90;;;;;;4928114;28;20013;-78
2022/05/13 08:43:36;;;;;;;;;;;16.60;99.90;;;;;;4952283;28;20020;-80
2022/05/13 08:46:08;;;;;;;;;;;16.40;99.90;;;;;;4936076;28;19926;-84
2022/05/13 08:48:40;;;;;;;;;;;16.90;99.90;;;;;;4935971;28;19926;-80
2022/05/13 08:51:13;;;;;;;;;;;17.80;99.90;;;;;;4935306;28;19927;-79
2022/05/13 08:53:49;;;;;;;;;;;17.30;99.90;;;;;;4951931;28;19961;-79
2022/05/13 08:56:19;;;;;;;;;;;17.40;99.90;;;;;;4937392;28;19932;-79
2022/05/13 08:58:49;;;;;;;;;;;17.70;99.90;;;;;;4928829;28;19925;-79
2022/05/13 09:01:22;;;;;;;;;;;17.20;99.90;;;;;;4948389;28;19965;-76
2022/05/13 09:03:50;;;;;;;;;;;17.60;99.90;;;;;;4948499;28;19922;-78
2022/05/13 09:06:37;;;;;;;;;;;16.90;99.90;;;;;;4944269;28;19926;-78
2022/05/13 09:09:04;;;;;;;;;;;16.80;99.90;;;;;;4948818;28;19989;-77
2022/05/13 09:11:38;;;;;;;;;;;16.60;99.90;;;;;;4946427;28;19930;-76
2022/05/13 09:14:17;;;;;;;;;;;16.30;99.90;;;;;;4948705;28;20036;-78
2022/05/13 09:16:49;;;;;;;;;;;16.50;99.90;;;;;;4942320;28;19939;-76
2022/05/13 09:19:25;;;;;;;;;;;17.30;99.90;;;;;;4933593;28;20186;-76
2022/05/13 09:21:51;;;;;;;;;;;17.30;99.90;;;;;;4935934;28;19929;-77
2022/05/13 09:24:16;;;;;;;;;;;17.30;99.90;;;;;;4937201;28;20106;-76
2022/05/13 09:26:43;;;;;;;;;;;16.80;99.90;;;;;;4949228;28;20515;-75
2022/05/13 09:29:12;;;;;;;;;;;16.70;99.90;;;;;;4947576;28;20358;-77
2022/05/13 09:31:40;;;;;;;;;;;16.60;99.90;;;;;;4958562;28;19925;-74
2022/05/13 09:34:24;;;;;;;;;;;16.80;99.90;;;;;;4934752;28;19922;-76
2022/05/13 09:36:50;;;;;;;;;;;17.50;99.90;;;;;;4945474;28;20442;-75
2022/05/13 09:39:17;;;;;;;;;;;17.70;99.90;;;;;;4950981;28;20016;-75
2022/05/13 09:41:44;;;;;;;;;;;17.80;99.90;;;;;;4951819;28;19937;-77
2022/05/13 09:44:11;;;;;;;;;;;18.30;99.90;;;;;;4947013;28;19957;-75
2022/05/13 09:46:41;;;;;;;;;;;18.60;99.90;;;;;;4931559;28;19930;-77
2022/05/13 09:49:19;;;;;;;;;;;18.70;99.90;;;;;;4932113;28;19932;-76
2022/05/13 09:51:48;;;;;;;;;;;18.70;99.90;;;;;;4929446;28;19936;-78
2022/05/13 09:54:15;;;;;;;;;;;18.20;98.90;;;;;;4948273;28;19932;-77
2022/05/13 09:56:43;;;;;;;;;;;17.90;99.90;;;;;;4957464;28;19925;-79
2022/05/13 09:59:18;;;;;;;;;;;17.60;99.90;;;;;;4954125;28;19926;-80
2022/05/13 10:01:44;;;;;;;;;;;17.20;99.90;;;;;;4967896;28;19933;-77
2022/05/13 10:04:11;;;;;;;;;;;17.20;99.90;;;;;;4952461;28;19932;-77
2022/05/13 10:06:37;;;;;;;;;;;17.20;99.90;;;;;;4970800;28;19926;-78
2022/05/13 10:14:41;;;;;;;;;;;17.30;99.90;;;;;;4959051;28;19926;-75
2022/05/13 10:17:13;;;;;;;;;;;17.20;99.90;;;;;;4955861;28;19926;-75
2022/05/13 10:19:47;;;;;;;;;;;17.00;99.90;;;;;;4958568;28;19925;-79
2022/05/13 10:22:17;;;;;;;;;;;16.80;99.90;;;;;;4959767;28;19930;-78
2022/05/13 10:24:59;;;;;;;;;;;17.20;99.90;;;;;;4948669;28;20326;-78
2022/05/13 10:27:30;;;;;;;;;;;17.80;99.90;;;;;;4967904;28;19926;-77
2022/05/13 10:30:00;;;;;;;;;;;17.90;99.90;;;;;;4975464;28;19925;-79
2022/05/13 10:32:32;;;;;;;;;;;17.60;99.90;;;;;;4964565;28;20425;-76
2022/05/13 10:35:00;;;;;;;;;;;17.50;99.90;;;;;;4956403;28;20051;-77
2022/05/13 10:37:45;;;;;;;;;;;17.40;99.90;;;;;;4960483;28;20310;-77
2022/05/13 10:40:13;;;;;;;;;;;18.20;99.90;;;;;;4962861;28;19965;-79
2022/05/13 10:42:41;;;;;;;;;;;17.80;99.90;;;;;;4943627;28;19926;-81
2022/05/13 10:45:25;;;;;;;;;;;17.60;99.90;;;;;;4959601;28;19933;-78
2022/05/13 10:48:12;;;;;;;;;;;18.30;99.90;;;;;;4942875;28;19936;-77
2022/05/13 10:50:43;;;;;;;;;;;18.30;99.90;;;;;;4960035;28;20008;-77
2022/05/13 10:53:12;;;;;;;;;;;17.90;99.90;;;;;;4958949;28;19925;-77
2022/05/13 10:55:57;;;;;;;;;;;18.80;99.90;;;;;;4959402;28;19926;-78
2022/05/13 10:58:39;;;;;;;;;;;18.50;99.90;;;;;;4962164;28;20910;-80
2022/05/13 11:01:20;;;;;;;;;;;18.10;99.90;;;;;;4939261;28;20331;-78
2022/05/13 11:04:04;;;;;;;;;;;18.40;99.90;;;;;;4958078;28;19972;-78
2022/05/13 11:06:30;;;;;;;;;;;18.10;99.90;;;;;;4964162;28;19933;-78
2022/05/13 11:08:56;;;;;;;;;;;17.80;99.90;;;;;;4941098;28;19960;-77
2022/05/13 11:11:37;;;;;;;;;;;17.50;99.90;;;;;;4959622;28;20154;-77
2022/05/13 11:14:11;;;;;;;;;;;17.50;99.90;;;;;;4966665;28;20036;-78
2022/05/13 11:16:37;;;;;;;;;;;17.80;99.90;;;;;;4969492;28;19926;-77
2022/05/13 11:19:22;;;;;;;;;;;17.70;99.90;;;;;;4971890;28;19929;-77
2022/05/13 11:22:07;;;;;;;;;;;18.20;99.90;;;;;;4971797;28;19937;-77
2022/05/13 11:27:43;;;;;;;;;;;17.70;99.90;;;;;;4973494;28;19951;-78
2022/05/13 11:30:13;;;;;;;;;;;17.80;99.90;;;;;;4969500;28;20759;-78
2022/05/13 11:32:45;;;;;;;;;;;18.20;99.90;;;;;;4969177;28;19932;-77
2022/05/13 11:35:11;;;;;;;;;;;18.30;99.90;;;;;;4968060;28;19932;-78
2022/05/13 11:37:38;;;;;;;;;;;18.60;99.90;;;;;;4966953;28;19926;-78
2022/05/13 11:40:14;;;;;;;;;;;18.70;99.90;;;;;;4974769;28;20426;-77
2022/05/13 11:45:37;;;;;;;;;;;18.50;99.90;;;;;;4973568;28;19925;-80
2022/05/13 11:48:12;;;;;;;;;;;19.40;97.30;;;;;;4970360;28;19925;-80
2022/05/13 11:50:37;;;;;;;;;;;19.20;99.00;;;;;;4952085;28;19933;-77
2022/05/13 11:53:03;;;;;;;;;;;18.90;96.00;;;;;;4973420;28;19925;-77
2022/05/13 11:55:35;;;;;;;;;;;18.30;99.10;;;;;;4970047;28;20829;-77
2022/05/13 11:58:01;;;;;;;;;;;18.00;99.90;;;;;;4967694;28;19978;-78
2022/05/13 12:00:40;;;;;;;;;;;17.80;99.90;;;;;;4975616;28;20642;-77
2022/05/13 12:03:08;;;;;;;;;;;17.60;99.90;;;;;;4970375;28;19926;-79
2022/05/13 12:05:54;;;;;;;;;;;17.60;99.90;;;;;;4971726;28;20438;-79
2022/05/13 12:08:40;;;;;;;;;;;18.10;99.90;;;;;;4957017;28;19926;-81
2022/05/13 12:11:18;;;;;;;;;;;17.80;99.90;;;;;;4971292;28;20807;-78
2022/05/13 12:13:49;;;;;;;;;;;17.50;99.90;;;;;;4969800;28;19937;-79
2022/05/13 12:16:36;;;;;;;;;;;17.30;99.90;;;;;;4971603;28;20402;-77
2022/05/13 12:19:08;;;;;;;;;;;17.40;99.90;;;;;;4970750;28;19925;-78
2022/05/13 12:21:54;;;;;;;;;;;17.30;99.90;;;;;;4971262;28;19926;-76
2022/05/13 12:24:21;;;;;;;;;;;17.50;99.90;;;;;;4925929;28;20975;-76
2022/05/13 12:26:54;;;;;;;;;;;17.40;99.90;;;;;;4954283;28;19926;-76
2022/05/13 12:29:20;;;;;;;;;;;17.40;99.90;;;;;;4969870;28;19992;-78
2022/05/13 12:31:46;;;;;;;;;;;17.40;99.90;;;;;;4972735;28;20385;-76
2022/05/13 12:39:51;;;;;;;;;;;18.30;99.90;;;;;;4971425;28;19972;-78
2022/05/13 12:42:26;;;;;;;;;;;18.90;99.90;;;;;;4973165;28;19925;-78
2022/05/13 12:44:59;;;;;;;;;;;18.50;99.90;;;;;;4974246;28;19988;-77
2022/05/13 12:47:29;;;;;;;;;;;18.20;99.90;;;;;;4971308;28;19926;-76
2022/05/13 12:49:56;;;;;;;;;;;18.20;99.90;;;;;;4952560;28;20775;-76
2022/05/13 12:52:41;;;;;;;;;;;18.40;99.90;;;;;;4971765;28;19925;-78
2022/05/13 12:55:18;;;;;;;;;;;18.90;99.90;;;;;;4975601;28;19996;-77
2022/05/13 12:57:47;;;;;;;;;;;18.90;99.90;;;;;;4972001;28;19932;-79
2022/05/13 13:00:23;;;;;;;;;;;18.60;99.80;;;;;;4972817;28;20015;-78
2022/05/13 13:02:51;;;;;;;;;;;18.80;98.90;;;;;;4971330;28;19993;-76
2022/05/13 13:05:23;;;;;;;;;;;18.80;99.90;;;;;;4956062;28;19925;-78
2022/05/13 13:07:52;;;;;;;;;;;18.60;99.90;;;;;;4969810;28;19925;-77
2022/05/13 13:10:18;;;;;;;;;;;18.40;99.90;;;;;;4937943;28;19978;-79
2022/05/13 13:13:00;;;;;;;;;;;18.40;99.90;;;;;;4973290;28;19933;-77
2022/05/13 13:15:28;;;;;;;;;;;18.30;99.90;;;;;;4969741;28;20075;-77
2022/05/13 13:17:54;;;;;;;;;;;18.50;99.90;;;;;;4973097;28;19926;-76
2022/05/13 13:20:21;;;;;;;;;;;18.60;99.90;;;;;;4969998;28;19952;-77
2022/05/13 13:22:48;;;;;;;;;;;18.60;99.90;;;;;;4969471;28;20578;-77
2022/05/13 13:25:13;;;;;;;;;;;18.60;99.90;;;;;;4971485;28;19929;-77
2022/05/13 13:27:39;;;;;;;;;;;18.70;99.70;;;;;;4972552;28;19932;-77
2022/05/13 13:30:05;;;;;;;;;;;18.50;99.90;;;;;;4972205;28;20388;-81
2022/05/13 13:32:31;;;;;;;;;;;18.50;99.90;;;;;;4969491;28;19925;-78
2022/05/13 13:35:01;;;;;;;;;;;18.60;99.90;;;;;;4970222;28;20148;-77
2022/05/13 13:37:34;;;;;;;;;;;18.50;98.30;;;;;;4972540;28;19928;-79
2022/05/13 13:40:17;;;;;;;;;;;18.60;98.00;;;;;;4971579;28;19997;-78
2022/05/13 13:42:43;;;;;;;;;;;19.00;99.60;;;;;;4946156;28;19925;-79
2022/05/13 13:45:13;;;;;;;;;;;19.20;96.40;;;;;;4949527;28;20671;-82
2022/05/13 13:47:43;;;;;;;;;;;18.90;95.30;;;;;;4950787;28;20019;-78
2022/05/13 13:50:14;;;;;;;;;;;19.00;96.30;;;;;;4950314;28;20176;-78
2022/05/13 13:52:41;;;;;;;;;;;18.90;96.50;;;;;;4954712;28;19925;-79
2022/05/13 13:55:09;;;;;;;;;;;18.90;96.70;;;;;;4959405;28;19925;-76
2022/05/13 13:57:37;;;;;;;;;;;18.80;95.70;;;;;;4954592;28;19983;-77
2022/05/13 14:00:04;;;;;;;;;;;18.80;93.60;;;;;;4956675;28;20904;-76
2022/05/13 14:02:37;;;;;;;;;;;19.10;94.60;;;;;;4959067;28;20521;-78
2022/05/13 14:05:07;;;;;;;;;;;19.40;94.10;;;;;;4955507;28;19921;-77
2022/05/13 14:07:33;;;;;;;;;;;19.20;93.30;;;;;;4942973;28;19932;-76
2022/05/13 14:09:59;;;;;;;;;;;19.10;93.60;;;;;;4961341;28;20332;-78
2022/05/13 14:12:26;;;;;;;;;;;19.10;95.10;;;;;;4966417;28;20434;-78
2022/05/13 14:14:54;;;;;;;;;;;18.90;95.20;;;;;;4962920;28;19926;-76
2022/05/13 14:17:22;;;;;;;;;;;18.70;93.40;;;;;;4958260;28;20841;-78
2022/05/13 14:19:53;;;;;;;;;;;18.80;93.00;;;;;;4962255;28;20411;-77
2022/05/13 14:22:20;;;;;;;;;;;19.20;96.50;;;;;;4968548;28;19929;-75
2022/05/13 14:24:47;;;;;;;;;;;19.40;95.00;;;;;;4973562;28;19926;-75
2022/05/13 14:27:12;;;;;;;;;;;19.40;95.10;;;;;;4975107;28;20016;-75
2022/05/13 14:29:38;;;;;;;;;;;19.30;95.20;;;;;;4953008;28;19979;-78
2022/05/13 14:32:06;;;;;;;;;;;19.50;95.80;;;;;;4954665;28;19991;-75
2022/05/13 14:34:32;;;;;;;;;;;19.60;93.40;;;;;;4935821;28;19925;-75
2022/05/13 14:37:00;;;;;;;;;;;19.70;95.10;;;;;;4957085;28;20008;-78
2022/05/13 14:39:50;;;;;;;;;;;19.90;92.80;;;;;;4959494;28;19921;-75
2022/05/13 14:42:17;;;;;;;;;;;19.70;94.40;;;;;;4947111;28;19972;-77
2022/05/13 14:44:48;;;;;;;;;;;19.60;94.90;;;;;;4957767;28;20309;-77
2022/05/13 14:47:16;;;;;;;;;;;19.70;94.80;;;;;;4940506;28;19936;-76
2022/05/13 14:49:44;;;;;;;;;;;19.50;91.90;;;;;;4933463;28;20382;-75
2022/05/13 14:52:18;;;;;;;;;;;19.30;92.30;;;;;;4969463;28;19925;-75
2022/05/13 14:54:45;;;;;;;;;;;19.30;94.80;;;;;;4940140;28;19926;-75
2022/05/13 14:57:11;;;;;;;;;;;19.20;95.00;;;;;;4952524;28;19936;-74
2022/05/13 14:59:42;;;;;;;;;;;18.90;96.60;;;;;;4974325;28;20024;-75
2022/05/13 15:02:13;;;;;;;;;;;19.20;97.20;;;;;;4966484;28;19925;-75